Chandler Field Alexandria US
ICAO: KAXN
IATA: AXN
Category: Medium
Scheduled Services: No

Elevation: 1425 ft
TransAlt. 18000 ft.

Airport Communications:
ASOS:118.375
MINNEAPOLIS CNTR:126.1
PRINCETON RDO:122.6
CTAF/UNICOM:123

KAXN Zoom In..

If you have problems with the map follow the link
https://www.worldairports.se/pages/airport.php?
ICAO=KAXN

Runways:

(A) RW 04 length 4098 ft width 75 ft
---- / hdg 45

(B) RW 13 length 5099 ft width 100 ft
---- / hdg 135

(C) RW 22 length 4098 ft width 75 ft
---- / hdg 225

(D) RW 31 length 5099 ft width 100 ft
ILS 110.50 / hdg 315

Location; KAXN
Day. 22 / Time. 09.53 Zulu
* Altimeter: 29.77
* Temperature: -06° c. -21.2°f.
* Wind from: 190° Speed 09 kn.
Dewpoint: -08° c.
Visibility: 9 Statute Miles.
Clouds: Clear (automated report).

KAXN 220953Z AUTO 19009KT 9SM CLR M06/M08 A2977 RMK AO2 SLP104 T10561078


Wind From 190°
Speed 09 kn.

 
 
jpsmedia worldairports.se 2020   terms of use